ESNG

Gällivare Lapland Airport

Airport
ICAO code
ESNG
IATA Code
GEV
Summary
ICAO Region
EUR
ICAO Territory
Location

Gällivare, Gällivare

Serving
Gällivare
Elevation
1027 ft
Coordinates
67° 8' 5" N , 20° 48' 46" E
KCC
Metar
ESNG 192120Z AUTO 30010KT 9999 SCT057/// BKN078/// 10/07 Q0998

Gällivare Lapland Airport is an airport located in Gällivare Municipality, Sweden, about 7 km east from Gällivare and about 10 km from Malmberget.

Climatology

Subarctic climate (Köppen climate classification Dfc)

Runways

Designator Length Width Surface Rops
12/30 1714 45 ASP No/No

Airport map

Aerial View

Airport accidents

SKYbrary Partners:

Safety knowledge contributed by: